Time;durP1;ratioP1;P1;durP2;ratioP2;P2;SDS_P1;SDS_P2;PMS_P1;PMS_P2;Temp;Humidity;BMP_temperature;BMP_pressure;BME280_temperature;BME280_humidity;BME280_pressure;Samples;Min_cycle;Max_cycle;Signal;HPM_P1;HPM_P2
2021/04/07 00:01:19;;;;;;;17.08;5.85;;;;;;;;;;4797969;29;20027;-59
2021/04/07 00:03:45;;;;;;;14.93;4.40;;;;;;;;;;4798285;29;20345;-60
2021/04/07 00:06:11;;;;;;;17.02;5.38;;;;;;;;;;4799222;29;20023;-60
2021/04/07 00:08:37;;;;;;;16.73;5.28;;;;;;;;;;4799285;30;20217;-59
2021/04/07 00:11:03;;;;;;;15.27;3.75;;;;;;;;;;4799432;29;20028;-60
2021/04/07 00:13:30;;;;;;;15.93;4.75;;;;;;;;;;4799398;29;20019;-59
2021/04/07 00:15:57;;;;;;;18.02;5.35;;;;;;;;;;4798905;29;20241;-55
2021/04/07 00:20:56;;;;;;;13.82;4.10;;;;;;;;;;4976520;23;20047;-63
2021/04/07 00:23:22;;;;;;;15.93;5.20;;;;;;;;;;4945696;29;20051;-62
2021/04/07 00:25:48;;;;;;;18.98;6.28;;;;;;;;;;4945975;29;20067;-62
2021/04/07 00:28:19;;;;;;;19.88;5.30;;;;;;;;;;4946226;29;20023;-62
2021/04/07 00:30:45;;;;;;;22.75;5.93;;;;;;;;;;4946468;29;20031;-62
2021/04/07 00:33:12;;;;;;;17.10;5.43;;;;;;;;;;4946109;29;20050;-63
2021/04/07 00:35:39;;;;;;;18.65;5.22;;;;;;;;;;4944754;29;20023;-63
2021/04/07 00:38:05;;;;;;;14.32;4.32;;;;;;;;;;4945900;29;20325;-63
2021/04/07 00:40:31;;;;;;;13.60;4.80;;;;;;;;;;4944720;29;20075;-64
2021/04/07 00:42:57;;;;;;;18.98;4.95;;;;;;;;;;4944821;29;20297;-62
2021/04/07 00:45:24;;;;;;;15.35;6.00;;;;;;;;;;4945620;29;20090;-62
2021/04/07 00:47:51;;;;;;;12.23;3.70;;;;;;;;;;4945698;29;20027;-63
2021/04/07 00:50:18;;;;;;;15.65;5.18;;;;;;;;;;4945616;29;20079;-63
2021/04/07 00:52:44;;;;;;;16.00;4.95;;;;;;;;;;4944555;29;20175;-64
2021/04/07 00:55:11;;;;;;;22.27;6.50;;;;;;;;;;4945595;29;20024;-64
2021/04/07 00:57:37;;;;;;;15.77;7.30;;;;;;;;;;4945569;29;20019;-64
2021/04/07 01:00:04;;;;;;;22.08;5.93;;;;;;;;;;4945732;29;20282;-64
2021/04/07 01:02:30;;;;;;;15.80;3.90;;;;;;;;;;4944358;29;20031;-63
2021/04/07 01:04:57;;;;;;;17.00;5.32;;;;;;;;;;4945209;29;20348;-63
2021/04/07 01:07:23;;;;;;;16.45;4.90;;;;;;;;;;4945700;29;20195;-63
2021/04/07 01:09:50;;;;;;;15.02;6.00;;;;;;;;;;4945659;29;20020;-62
2021/04/07 01:12:16;;;;;;;14.00;4.70;;;;;;;;;;4945543;29;20031;-63
2021/04/07 01:17:52;;;;;;;15.40;5.03;;;;;;;;;;4945598;29;20027;-65
2021/04/07 01:20:20;;;;;;;16.15;4.45;;;;;;;;;;4944143;29;20345;-63
2021/04/07 01:22:47;;;;;;;14.40;5.07;;;;;;;;;;4945427;29;20218;-63
2021/04/07 01:25:14;;;;;;;16.93;4.70;;;;;;;;;;4945136;29;20035;-63
2021/04/07 01:27:40;;;;;;;15.70;5.68;;;;;;;;;;4945305;29;20042;-64
2021/04/07 01:30:08;;;;;;;17.50;5.25;;;;;;;;;;4944028;29;20317;-62
2021/04/07 01:32:36;;;;;;;15.18;5.30;;;;;;;;;;4945314;29;20025;-63
2021/04/07 01:35:02;;;;;;;16.42;4.68;;;;;;;;;;4944974;29;20020;-62
2021/04/07 01:37:28;;;;;;;21.85;5.38;;;;;;;;;;4945009;29;20023;-63
2021/04/07 01:39:54;;;;;;;18.77;6.30;;;;;;;;;;4945061;29;20200;-63
2021/04/07 01:42:21;;;;;;;19.90;7.15;;;;;;;;;;4945236;29;20023;-64
2021/04/07 01:44:48;;;;;;;20.08;5.75;;;;;;;;;;4944830;29;20031;-63
2021/04/07 01:47:14;;;;;;;15.88;4.68;;;;;;;;;;4945077;29;20221;-64
2021/04/07 01:49:40;;;;;;;16.52;5.05;;;;;;;;;;4945073;29;20258;-62
2021/04/07 01:52:07;;;;;;;17.42;6.18;;;;;;;;;;4944899;29;20039;-63
2021/04/07 01:54:35;;;;;;;21.40;6.28;;;;;;;;;;4944891;29;20031;-62
2021/04/07 01:57:01;;;;;;;19.38;7.15;;;;;;;;;;4944666;29;20030;-61
2021/04/07 01:59:31;;;;;;;14.52;4.97;;;;;;;;;;4944310;29;20222;-63
2021/04/07 02:01:58;;;;;;;15.65;5.50;;;;;;;;;;4944005;29;20023;-63
2021/04/07 02:04:24;;;;;;;15.23;6.22;;;;;;;;;;4943924;29;20034;-63
2021/04/07 02:06:50;;;;;;;17.67;5.18;;;;;;;;;;4944102;29;20023;-62
2021/04/07 02:09:17;;;;;;;24.30;6.57;;;;;;;;;;4943113;29;20047;-63
2021/04/07 02:11:48;;;;;;;15.00;6.35;;;;;;;;;;4944227;29;20015;-63
2021/04/07 02:14:15;;;;;;;14.95;6.20;;;;;;;;;;4944559;29;20019;-63
2021/04/07 02:16:41;;;;;;;15.48;5.00;;;;;;;;;;4944551;29;20393;-63
2021/04/07 02:19:10;;;;;;;14.23;4.40;;;;;;;;;;4944613;29;20189;-64
2021/04/07 02:21:37;;;;;;;19.17;5.30;;;;;;;;;;4944885;29;20136;-62
2021/04/07 02:24:04;;;;;;;17.75;7.70;;;;;;;;;;4944476;29;20023;-63
2021/04/07 02:26:31;;;;;;;17.70;7.47;;;;;;;;;;4944453;29;20128;-63
2021/04/07 02:28:57;;;;;;;16.77;4.45;;;;;;;;;;4944108;29;20321;-62
2021/04/07 02:31:23;;;;;;;16.83;4.85;;;;;;;;;;4944078;29;20038;-63
2021/04/07 02:33:49;;;;;;;26.05;7.05;;;;;;;;;;4944598;29;20028;-63
2021/04/07 02:36:16;;;;;;;18.23;7.45;;;;;;;;;;4944274;29;20043;-62
2021/04/07 02:38:43;;;;;;;17.25;6.80;;;;;;;;;;4944405;29;20060;-64
2021/04/07 02:41:09;;;;;;;19.33;5.63;;;;;;;;;;4943794;29;20015;-62
2021/04/07 02:43:37;;;;;;;23.55;6.93;;;;;;;;;;4943940;29;20019;-63
2021/04/07 02:46:04;;;;;;;19.63;6.15;;;;;;;;;;4942705;29;20221;-63
2021/04/07 02:48:31;;;;;;;21.20;7.65;;;;;;;;;;4944051;29;20027;-65
2021/04/07 02:50:57;;;;;;;20.17;8.10;;;;;;;;;;4944183;29;20022;-64
2021/04/07 02:53:23;;;;;;;20.25;7.32;;;;;;;;;;4944131;29;20046;-61
2021/04/07 02:55:49;;;;;;;22.05;6.10;;;;;;;;;;4942632;29;20015;-63
2021/04/07 02:58:15;;;;;;;20.23;6.45;;;;;;;;;;4942808;29;20133;-63
2021/04/07 03:00:41;;;;;;;18.48;7.65;;;;;;;;;;4944033;29;20016;-63
2021/04/07 03:03:07;;;;;;;18.27;6.80;;;;;;;;;;4943899;29;20020;-64
2021/04/07 03:05:34;;;;;;;16.77;6.53;;;;;;;;;;4942656;29;20028;-62
2021/04/07 03:08:00;;;;;;;15.98;6.45;;;;;;;;;;4943853;29;20063;-63
2021/04/07 03:10:26;;;;;;;21.15;6.43;;;;;;;;;;4943618;29;20023;-63
2021/04/07 03:12:52;;;;;;;20.95;7.22;;;;;;;;;;4943637;29;20016;-63
2021/04/07 03:15:18;;;;;;;18.42;6.85;;;;;;;;;;4942470;29;20019;-62
2021/04/07 03:17:45;;;;;;;15.18;5.68;;;;;;;;;;4942571;29;20023;-63
2021/04/07 03:20:11;;;;;;;15.75;6.55;;;;;;;;;;4943454;29;20028;-64
2021/04/07 03:22:37;;;;;;;18.13;6.57;;;;;;;;;;4943532;29;20101;-62
2021/04/07 03:25:05;;;;;;;14.98;7.05;;;;;;;;;;4943302;29;20234;-64
2021/04/07 03:27:31;;;;;;;18.13;6.80;;;;;;;;;;4943445;29;20136;-63
2021/04/07 03:29:59;;;;;;;18.58;7.10;;;;;;;;;;4943588;29;20080;-63
2021/04/07 03:32:26;;;;;;;17.25;6.78;;;;;;;;;;4942129;29;20075;-64
2021/04/07 03:34:52;;;;;;;17.65;5.80;;;;;;;;;;4943299;29;20326;-63
2021/04/07 03:37:18;;;;;;;18.50;7.97;;;;;;;;;;4943431;29;20027;-62
2021/04/07 03:39:44;;;;;;;17.23;5.68;;;;;;;;;;4943272;29;20039;-64
2021/04/07 03:42:10;;;;;;;16.17;5.45;;;;;;;;;;4943527;29;20016;-64
2021/04/07 03:44:36;;;;;;;17.30;6.30;;;;;;;;;;4943072;29;20042;-63
2021/04/07 03:47:03;;;;;;;17.30;5.30;;;;;;;;;;4943448;29;20019;-64
2021/04/07 03:49:31;;;;;;;15.70;6.40;;;;;;;;;;4942246;29;20095;-63
2021/04/07 03:51:57;;;;;;;17.58;6.25;;;;;;;;;;4943211;29;20027;-62
2021/04/07 03:54:25;;;;;;;17.67;6.22;;;;;;;;;;4946866;29;20050;-64
2021/04/07 03:56:51;;;;;;;17.37;6.77;;;;;;;;;;4947059;29;20024;-63
2021/04/07 03:59:17;;;;;;;24.15;7.70;;;;;;;;;;4946683;29;20299;-63
2021/04/07 04:01:44;;;;;;;17.60;5.60;;;;;;;;;;4946540;29;20024;-63
2021/04/07 04:04:10;;;;;;;19.13;6.63;;;;;;;;;;4946403;29;20031;-63
2021/04/07 04:06:38;;;;;;;19.70;6.15;;;;;;;;;;4946522;29;20073;-62
2021/04/07 04:09:05;;;;;;;22.92;7.68;;;;;;;;;;4946533;29;20377;-62
2021/04/07 04:11:31;;;;;;;17.05;6.88;;;;;;;;;;4946418;29;20246;-62
2021/04/07 04:13:57;;;;;;;18.02;7.22;;;;;;;;;;4946319;29;20321;-64
2021/04/07 04:16:23;;;;;;;18.23;6.38;;;;;;;;;;4946344;29;20031;-62
2021/04/07 04:18:50;;;;;;;19.65;6.47;;;;;;;;;;4946016;29;20020;-63
2021/04/07 04:21:16;;;;;;;20.45;5.93;;;;;;;;;;4946162;29;20027;-64
2021/04/07 04:23:42;;;;;;;11.27;5.15;;;;;;;;;;4946115;29;20026;-62
2021/04/07 04:26:08;;;;;;;25.92;7.35;;;;;;;;;;4946095;29;20024;-62
2021/04/07 04:28:34;;;;;;;18.50;7.43;;;;;;;;;;4946046;29;20024;-62
2021/04/07 04:31:00;;;;;;;21.55;8.25;;;;;;;;;;4946096;29;20027;-63
2021/04/07 04:33:27;;;;;;;26.33;8.00;;;;;;;;;;4945817;29;20019;-64
2021/04/07 04:35:57;;;;;;;16.98;6.60;;;;;;;;;;4946079;29;20026;-64
2021/04/07 04:38:27;;;;;;;19.33;6.63;;;;;;;;;;4946059;29;20238;-61
2021/04/07 04:40:54;;;;;;;17.95;6.72;;;;;;;;;;4945587;29;20030;-62
2021/04/07 04:43:20;;;;;;;19.75;7.32;;;;;;;;;;4945775;29;20051;-63
2021/04/07 04:45:47;;;;;;;22.15;6.90;;;;;;;;;;4944286;29;20078;-63
2021/04/07 04:48:13;;;;;;;18.73;6.45;;;;;;;;;;4945791;29;20026;-60
2021/04/07 04:50:39;;;;;;;19.05;6.10;;;;;;;;;;4945515;29;20063;-62
2021/04/07 04:53:05;;;;;;;19.33;6.80;;;;;;;;;;4944401;29;20088;-63
2021/04/07 04:55:31;;;;;;;20.40;8.20;;;;;;;;;;4945458;29;20230;-62
2021/04/07 04:57:58;;;;;;;18.90;7.28;;;;;;;;;;4945385;29;20028;-63
2021/04/07 05:00:24;;;;;;;19.17;7.25;;;;;;;;;;4945262;29;20046;-64
2021/04/07 05:02:50;;;;;;;22.10;7.07;;;;;;;;;;4945090;29;20074;-63
2021/04/07 05:05:16;;;;;;;15.90;6.45;;;;;;;;;;4945190;29;20042;-64
2021/04/07 05:07:43;;;;;;;18.45;7.45;;;;;;;;;;4945244;29;20030;-61
2021/04/07 05:10:12;;;;;;;21.23;7.25;;;;;;;;;;4945209;29;20215;-62
2021/04/07 05:12:38;;;;;;;16.70;6.10;;;;;;;;;;4944156;29;20094;-62
2021/04/07 05:15:08;;;;;;;29.65;8.05;;;;;;;;;;4944891;29;20035;-63
2021/04/07 05:17:37;;;;;;;16.60;6.90;;;;;;;;;;4945228;29;20047;-62
2021/04/07 05:20:05;;;;;;;21.02;7.75;;;;;;;;;;4945050;29;20067;-62
2021/04/07 05:22:31;;;;;;;17.02;5.80;;;;;;;;;;4943934;29;20027;-64
2021/04/07 05:24:57;;;;;;;15.05;5.30;;;;;;;;;;4944663;29;20031;-61
2021/04/07 05:27:24;;;;;;;18.48;6.75;;;;;;;;;;4944869;29;20030;-63
2021/04/07 05:29:50;;;;;;;17.90;6.85;;;;;;;;;;4944675;29;20314;-62
2021/04/07 05:32:17;;;;;;;19.58;5.43;;;;;;;;;;4944617;29;20027;-62
2021/04/07 05:34:43;;;;;;;20.27;7.57;;;;;;;;;;4944632;29;20023;-63
2021/04/07 05:37:10;;;;;;;15.95;6.78;;;;;;;;;;4943660;29;20028;-63
2021/04/07 05:39:36;;;;;;;17.48;6.80;;;;;;;;;;4944568;29;20027;-62
2021/04/07 05:42:03;;;;;;;22.45;7.95;;;;;;;;;;4944685;29;20023;-63
2021/04/07 05:44:29;;;;;;;18.90;7.22;;;;;;;;;;4944306;29;20092;-63
2021/04/07 05:46:56;;;;;;;20.67;6.93;;;;;;;;;;4944576;29;20024;-63
2021/04/07 05:49:23;;;;;;;21.23;8.10;;;;;;;;;;4944497;29;20023;-63
2021/04/07 05:51:50;;;;;;;19.40;7.30;;;;;;;;;;4944311;29;20028;-63
2021/04/07 05:54:16;;;;;;;18.88;7.32;;;;;;;;;;4944261;29;20030;-62
2021/04/07 05:56:42;;;;;;;17.63;7.43;;;;;;;;;;4944369;29;20016;-63
2021/04/07 05:59:09;;;;;;;22.35;9.32;;;;;;;;;;4944076;29;20070;-62
2021/04/07 06:01:35;;;;;;;19.65;7.82;;;;;;;;;;4942955;29;20063;-62
2021/04/07 06:04:01;;;;;;;17.70;8.30;;;;;;;;;;4944019;29;20019;-63
2021/04/07 06:06:29;;;;;;;19.88;7.13;;;;;;;;;;4944146;29;20163;-63
2021/04/07 06:08:55;;;;;;;20.25;8.18;;;;;;;;;;4943958;29;20102;-62
2021/04/07 06:11:21;;;;;;;19.05;8.50;;;;;;;;;;4943907;29;20376;-64
2021/04/07 06:13:48;;;;;;;19.48;8.90;;;;;;;;;;4943879;29;20031;-64
2021/04/07 06:16:14;;;;;;;22.88;10.30;;;;;;;;;;4942195;29;20027;-64
2021/04/07 06:18:41;;;;;;;22.38;10.38;;;;;;;;;;4943667;29;20329;-63
2021/04/07 06:21:07;;;;;;;21.52;9.25;;;;;;;;;;4999304;23;20043;-57
2021/04/07 06:23:34;;;;;;;21.38;10.85;;;;;;;;;;4998699;28;20026;-62
2021/04/07 06:26:03;;;;;;;21.27;9.45;;;;;;;;;;4983882;28;20019;-57
2021/04/07 06:28:30;;;;;;;23.13;12.13;;;;;;;;;;4998928;28;20090;-58
2021/04/07 06:30:57;;;;;;;22.15;11.13;;;;;;;;;;4983554;28;20038;-57
2021/04/07 06:33:25;;;;;;;23.33;13.20;;;;;;;;;;4983490;28;20033;-57
2021/04/07 06:35:53;;;;;;;24.98;12.68;;;;;;;;;;4976031;28;20321;-56
2021/04/07 06:38:19;;;;;;;25.33;11.30;;;;;;;;;;4993564;28;20049;-55
2021/04/07 06:40:46;;;;;;;22.63;10.98;;;;;;;;;;4984469;28;20023;-60
2021/04/07 06:43:13;;;;;;;22.38;10.35;;;;;;;;;;4983425;28;20023;-59
2021/04/07 06:45:39;;;;;;;23.95;11.00;;;;;;;;;;4983064;28;20194;-60
2021/04/07 06:48:10;;;;;;;21.65;10.13;;;;;;;;;;4982286;28;20046;-60
2021/04/07 06:50:36;;;;;;;20.90;10.02;;;;;;;;;;4983268;28;20046;-60
2021/04/07 06:53:04;;;;;;;21.58;10.85;;;;;;;;;;4983332;28;20023;-59
2021/04/07 06:55:30;;;;;;;25.23;11.45;;;;;;;;;;4998535;28;20050;-59
2021/04/07 06:57:56;;;;;;;19.35;9.15;;;;;;;;;;4983485;28;20285;-55
2021/04/07 07:00:24;;;;;;;20.10;10.35;;;;;;;;;;4983215;28;20054;-59
2021/04/07 07:02:58;;;;;;;24.38;10.98;;;;;;;;;;4983342;28;20015;-60
2021/04/07 07:05:25;;;;;;;21.15;10.80;;;;;;;;;;4983415;28;20094;-60
2021/04/07 07:07:51;;;;;;;22.25;12.30;;;;;;;;;;4998738;28;20272;-60
2021/04/07 07:10:17;;;;;;;20.38;11.15;;;;;;;;;;4983161;28;20253;-60
2021/04/07 07:12:45;;;;;;;21.45;9.63;;;;;;;;;;4983111;28;20034;-59
2021/04/07 07:15:11;;;;;;;21.00;9.40;;;;;;;;;;4983509;28;20029;-58
2021/04/07 07:17:38;;;;;;;19.35;8.85;;;;;;;;;;4983181;28;20018;-60
2021/04/07 07:20:05;;;;;;;20.15;10.25;;;;;;;;;;4983134;28;20054;-59
2021/04/07 07:22:31;;;;;;;23.27;11.63;;;;;;;;;;4981810;28;20070;-61
2021/04/07 07:24:58;;;;;;;23.95;11.43;;;;;;;;;;4982975;28;20050;-59
2021/04/07 07:27:41;;;;;;;20.63;9.93;;;;;;;;;;4985555;28;20022;-56
2021/04/07 07:30:09;;;;;;;19.10;9.27;;;;;;;;;;4987150;28;20221;-59
2021/04/07 07:32:37;;;;;;;18.88;9.55;;;;;;;;;;4986781;28;20018;-61
2021/04/07 07:35:10;;;;;;;21.10;9.83;;;;;;;;;;4986344;28;20383;-57
2021/04/07 07:37:37;;;;;;;18.92;9.35;;;;;;;;;;4986544;28;20019;-55
2021/04/07 07:40:05;;;;;;;17.13;8.38;;;;;;;;;;5001518;28;20073;-59
2021/04/07 07:42:31;;;;;;;21.25;10.38;;;;;;;;;;4986669;28;20043;-58
2021/04/07 07:44:57;;;;;;;19.40;9.60;;;;;;;;;;4986648;28;20071;-59
2021/04/07 07:47:33;;;;;;;21.10;9.98;;;;;;;;;;4986789;28;20023;-59
2021/04/07 07:50:01;;;;;;;19.85;9.70;;;;;;;;;;4986075;28;20011;-60
2021/04/07 07:52:32;;;;;;;21.48;9.07;;;;;;;;;;4986431;28;20015;-60
2021/04/07 07:55:00;;;;;;;20.38;9.20;;;;;;;;;;4986443;28;20022;-59
2021/04/07 07:57:26;;;;;;;18.50;9.15;;;;;;;;;;4985734;28;20023;-60
2021/04/07 07:59:57;;;;;;;18.75;9.50;;;;;;;;;;4986120;28;20312;-53
2021/04/07 08:02:26;;;;;;;16.52;8.18;;;;;;;;;;4985909;28;20038;-55
2021/04/07 08:05:29;;;;;;;20.70;10.43;;;;;;;;;;4985145;28;20037;-54
2021/04/07 08:07:57;;;;;;;17.60;9.20;;;;;;;;;;4986251;28;20022;-55
2021/04/07 08:10:26;;;;;;;20.55;9.20;;;;;;;;;;4986113;28;20183;-58
2021/04/07 08:12:52;;;;;;;20.30;9.52;;;;;;;;;;4986253;28;20022;-55
2021/04/07 08:15:18;;;;;;;17.75;8.98;;;;;;;;;;4985992;28;20027;-52
2021/04/07 08:17:44;;;;;;;17.65;8.93;;;;;;;;;;4986155;28;20018;-55
2021/04/07 08:20:11;;;;;;;16.65;8.95;;;;;;;;;;4985370;28;20031;-57
2021/04/07 08:22:37;;;;;;;18.20;9.45;;;;;;;;;;4986177;28;20045;-56
2021/04/07 08:25:07;;;;;;;17.45;9.70;;;;;;;;;;4985791;28;20317;-58
2021/04/07 08:27:36;;;;;;;17.85;8.10;;;;;;;;;;4985726;28;20086;-58
2021/04/07 08:30:07;;;;;;;16.48;8.48;;;;;;;;;;4985857;28;20042;-53
2021/04/07 08:32:33;;;;;;;19.60;9.15;;;;;;;;;;4985443;28;20046;-58
2021/04/07 08:35:00;;;;;;;17.77;8.50;;;;;;;;;;4985023;28;20307;-55
2021/04/07 08:37:27;;;;;;;18.30;8.30;;;;;;;;;;5000126;28;20023;-57
2021/04/07 08:39:54;;;;;;;16.63;8.35;;;;;;;;;;4984751;28;20198;-58
2021/04/07 08:42:20;;;;;;;17.48;8.23;;;;;;;;;;4985211;28;20044;-58
2021/04/07 08:44:47;;;;;;;18.85;8.40;;;;;;;;;;4985177;28;20086;-56
2021/04/07 08:47:42;;;;;;;18.05;8.63;;;;;;;;;;5000283;28;20043;-57
2021/04/07 08:50:12;;;;;;;17.35;8.65;;;;;;;;;;4999815;28;20026;-57
2021/04/07 08:52:46;;;;;;;17.42;8.70;;;;;;;;;;4985278;28;20061;-57
2021/04/07 08:55:17;;;;;;;17.92;7.90;;;;;;;;;;4984473;28;20341;-58
2021/04/07 08:57:43;;;;;;;16.95;7.82;;;;;;;;;;4985137;28;20019;-57
2021/04/07 09:00:12;;;;;;;17.35;10.05;;;;;;;;;;5000026;28;20032;-54
2021/04/07 09:02:52;;;;;;;18.65;9.60;;;;;;;;;;4985040;28;20031;-57
2021/04/07 09:05:18;;;;;;;17.40;7.90;;;;;;;;;;4984626;28;20142;-56
2021/04/07 09:07:46;;;;;;;17.67;8.68;;;;;;;;;;4984997;28;20066;-55
2021/04/07 09:10:13;;;;;;;19.67;9.73;;;;;;;;;;4984933;28;20027;-59
2021/04/07 09:12:41;;;;;;;18.37;9.30;;;;;;;;;;4984685;28;20030;-58
2021/04/07 09:15:11;;;;;;;17.40;8.85;;;;;;;;;;4984816;28;20257;-57
2021/04/07 09:17:43;;;;;;;18.30;9.07;;;;;;;;;;4984465;28;20261;-58
2021/04/07 09:20:10;;;;;;;18.15;9.57;;;;;;;;;;4984082;28;20097;-55
2021/04/07 09:22:46;;;;;;;18.35;8.57;;;;;;;;;;4984628;28;20026;-56
2021/04/07 09:25:18;;;;;;;17.63;9.02;;;;;;;;;;4984121;28;20021;-59
2021/04/07 09:27:44;;;;;;;16.98;7.53;;;;;;;;;;4985037;28;20093;-57
2021/04/07 09:30:11;;;;;;;18.38;8.27;;;;;;;;;;4984299;28;20019;-57
2021/04/07 09:32:40;;;;;;;17.02;7.57;;;;;;;;;;4984498;28;20014;-58
2021/04/07 09:35:11;;;;;;;17.73;8.55;;;;;;;;;;4984115;28;20030;-58
2021/04/07 09:37:40;;;;;;;17.13;8.18;;;;;;;;;;4640101;28;10001120;-61
2021/04/07 09:40:16;;;;;;;16.48;8.27;;;;;;;;;;4983628;28;20289;-60
2021/04/07 09:42:43;;;;;;;21.20;10.38;;;;;;;;;;4981655;28;20034;-60
2021/04/07 09:45:09;;;;;;;16.52;7.97;;;;;;;;;;5013132;28;20212;-58
2021/04/07 09:47:35;;;;;;;16.52;7.82;;;;;;;;;;4980591;28;20034;-57
2021/04/07 09:50:09;;;;;;;17.10;7.32;;;;;;;;;;4981271;28;20018;-56
2021/04/07 09:52:41;;;;;;;16.05;7.20;;;;;;;;;;4981843;28;20049;-58
2021/04/07 09:55:07;;;;;;;15.93;7.18;;;;;;;;;;4981717;28;20022;-57
2021/04/07 09:57:34;;;;;;;19.35;7.70;;;;;;;;;;4980816;28;20029;-55
2021/04/07 10:00:00;;;;;;;20.58;9.10;;;;;;;;;;4982173;28;20104;-58
2021/04/07 10:02:27;;;;;;;18.63;7.90;;;;;;;;;;4982581;28;20018;-54
2021/04/07 10:04:54;;;;;;;16.17;7.63;;;;;;;;;;4981466;28;20026;-55
2021/04/07 10:07:28;;;;;;;16.85;7.65;;;;;;;;;;4982020;28;20213;-55
2021/04/07 10:10:00;;;;;;;19.77;7.68;;;;;;;;;;4981482;28;20050;-54
2021/04/07 10:12:28;;;;;;;16.55;5.20;;;;;;;;;;4981808;28;20093;-56
2021/04/07 10:14:57;;;;;;;15.57;7.47;;;;;;;;;;4981686;28;20031;-55
2021/04/07 10:17:25;;;;;;;18.52;7.45;;;;;;;;;;4981942;28;20046;-57
2021/04/07 10:19:52;;;;;;;16.88;7.70;;;;;;;;;;4981259;28;20383;-58
2021/04/07 10:22:29;;;;;;;16.10;5.97;;;;;;;;;;4981150;28;20082;-57
2021/04/07 10:27:46;;;;;;;20.13;8.23;;;;;;;;;;4981710;28;20030;-57
2021/04/07 10:30:14;;;;;;;19.67;6.78;;;;;;;;;;4981735;28;20014;-54
2021/04/07 10:32:59;;;;;;;17.60;5.80;;;;;;;;;;4980602;28;20019;-57
2021/04/07 10:35:31;;;;;;;15.63;5.93;;;;;;;;;;4981510;28;20038;-56
2021/04/07 10:38:04;;;;;;;16.75;7.18;;;;;;;;;;4982595;28;20045;-54
2021/04/07 10:40:33;;;;;;;16.52;7.85;;;;;;;;;;4980206;28;20221;-57
2021/04/07 10:43:19;;;;;;;15.68;6.85;;;;;;;;;;4982559;28;20217;-55
2021/04/07 10:46:07;;;;;;;14.93;7.05;;;;;;;;;;4983859;28;20089;-52
2021/04/07 10:48:35;;;;;;;14.70;6.20;;;;;;;;;;4963398;28;20015;-59
2021/04/07 10:51:03;;;;;;;17.25;6.53;;;;;;;;;;4964508;28;20019;-55
2021/04/07 10:53:29;;;;;;;13.57;5.95;;;;;;;;;;4964770;28;20019;-57
2021/04/07 10:55:55;;;;;;;15.35;6.30;;;;;;;;;;4979486;28;20054;-57
2021/04/07 10:58:25;;;;;;;12.80;5.47;;;;;;;;;;4964646;28;20019;-59
2021/04/07 11:00:52;;;;;;;13.30;5.43;;;;;;;;;;4964513;28;20029;-56
2021/04/07 11:03:29;;;;;;;16.20;7.80;;;;;;;;;;4632217;28;9999588;-56
2021/04/07 11:05:57;;;;;;;15.93;7.97;;;;;;;;;;4985328;28;20220;-57
2021/04/07 11:08:36;;;;;;;18.02;8.55;;;;;;;;;;4985446;28;20091;-60
2021/04/07 11:11:03;;;;;;;18.15;16.05;;;;;;;;;;4985370;28;20038;-60
2021/04/07 11:13:29;;;;;;;21.30;19.10;;;;;;;;;;4984261;28;20023;-61
2021/04/07 11:16:06;;;;;;;18.23;15.75;;;;;;;;;;4975908;28;20043;-61
2021/04/07 11:18:32;;;;;;;16.67;14.88;;;;;;;;;;4965843;29;20320;-60
2021/04/07 11:20:58;;;;;;;20.00;13.82;;;;;;;;;;4965520;28;20035;-58
2021/04/07 11:23:24;;;;;;;16.92;12.07;;;;;;;;;;4965224;28;20055;-59
2021/04/07 11:25:51;;;;;;;17.42;12.88;;;;;;;;;;4965621;28;20102;-60
2021/04/07 11:28:21;;;;;;;17.67;10.88;;;;;;;;;;4965751;28;20047;-59
2021/04/07 11:31:05;;;;;;;16.98;10.05;;;;;;;;;;4965475;28;20031;-61
2021/04/07 11:33:38;;;;;;;17.65;13.85;;;;;;;;;;4965215;28;20047;-61
2021/04/07 11:36:13;;;;;;;19.73;14.50;;;;;;;;;;4965096;28;20031;-61
2021/04/07 11:38:49;;;;;;;15.68;12.82;;;;;;;;;;4973139;28;20022;-58
2021/04/07 11:46:27;;;;;;;19.50;12.80;;;;;;;;;;4984426;28;20034;-61
2021/04/07 11:48:53;;;;;;;16.08;10.50;;;;;;;;;;4984634;28;20263;-58
2021/04/07 11:51:19;;;;;;;18.77;11.57;;;;;;;;;;4984315;28;20034;-59
2021/04/07 11:53:46;;;;;;;19.90;11.95;;;;;;;;;;4984164;28;20023;-59
2021/04/07 11:56:12;;;;;;;17.70;11.85;;;;;;;;;;4984358;28;20252;-58
2021/04/07 11:58:38;;;;;;;24.52;14.65;;;;;;;;;;4984694;28;20049;-59
2021/04/07 12:01:04;;;;;;;20.73;13.43;;;;;;;;;;4984446;28;20019;-59
2021/04/07 12:03:31;;;;;;;26.45;13.68;;;;;;;;;;4984315;28;20026;-59
2021/04/07 12:05:57;;;;;;;26.98;10.80;;;;;;;;;;4983806;28;20280;-58
2021/04/07 12:08:25;;;;;;;31.45;13.48;;;;;;;;;;4984200;28;20022;-62
2021/04/07 12:10:51;;;;;;;23.00;13.80;;;;;;;;;;4983418;28;20015;-59
2021/04/07 12:13:18;;;;;;;21.25;12.30;;;;;;;;;;4982471;28;20233;-60
2021/04/07 12:15:44;;;;;;;20.02;10.98;;;;;;;;;;4984216;28;20051;-59
2021/04/07 12:18:10;;;;;;;21.55;10.23;;;;;;;;;;4983876;28;20027;-60
2021/04/07 12:20:37;;;;;;;20.60;13.40;;;;;;;;;;4983272;28;20042;-59
2021/04/07 12:23:03;;;;;;;19.52;9.98;;;;;;;;;;4983421;28;20033;-58
2021/04/07 12:25:31;;;;;;;19.40;11.38;;;;;;;;;;4981962;28;20050;-58
2021/04/07 12:27:57;;;;;;;19.50;10.85;;;;;;;;;;4983563;28;20023;-58
2021/04/07 12:30:24;;;;;;;24.45;13.27;;;;;;;;;;4983193;28;20023;-59
2021/04/07 12:32:50;;;;;;;16.77;11.43;;;;;;;;;;4983290;28;20031;-60
2021/04/07 12:35:16;;;;;;;19.50;12.20;;;;;;;;;;5022811;23;21011;-62
2021/04/07 12:37:44;;;;;;;21.88;12.27;;;;;;;;;;4982810;28;20090;-62
2021/04/07 12:40:11;;;;;;;20.75;12.27;;;5.30;99.90;;;;;;4984281;28;20098;-61
2021/04/07 12:42:37;;;;;;;17.65;11.10;;;;;;;;;;4983771;28;20083;-64
2021/04/07 12:45:07;;;;;;;20.02;10.25;;;;;;;;;;4983946;28;20022;-63
2021/04/07 12:47:34;;;;;;;19.90;12.15;;;;;;;;;;4984053;28;20019;-62
2021/04/07 12:50:01;;;;;;;21.85;8.90;;;;;;;;;;4984223;28;20030;-60
2021/04/07 12:52:27;;;;;;;23.05;11.20;;;;;;;;;;4984085;28;20015;-61
2021/04/07 12:54:54;;;;;;;16.42;8.38;;;;;;;;;;4982702;28;20081;-61
2021/04/07 12:57:20;;;;;;;20.70;10.15;;;;;;;;;;4984081;28;20021;-63
2021/04/07 12:59:46;;;;;;;17.58;9.68;;;;;;;;;;4984102;28;20123;-62
2021/04/07 13:02:12;;;;;;;19.45;10.82;;;;;;;;;;4982603;28;20019;-62
2021/04/07 13:04:38;;;;;;;17.33;8.68;;;;;;;;;;4982348;28;20018;-64
2021/04/07 13:07:04;;;;;;;21.48;10.18;;;;;;;;;;4983493;28;20022;-62
2021/04/07 13:09:31;;;;;;;17.08;9.45;;;;;;;;;;4983993;28;20584;-63
2021/04/07 13:11:57;;;;;;;19.70;9.60;;;;;;;;;;4983945;28;20363;-63
2021/04/07 13:14:23;;;;;;;20.33;10.00;;;;;;;;;;4983539;28;20015;-63
2021/04/07 13:16:49;;;;;;;18.40;9.10;;;;;;;;;;4983600;28;20030;-61
2021/04/07 13:19:15;;;;;;;15.32;10.80;;;;;;;;;;4983564;28;20344;-63
2021/04/07 13:21:41;;;;;;;16.40;8.77;;;;;;;;;;4983527;28;20081;-62
2021/04/07 13:24:08;;;;;;;16.23;9.40;;;;;;;;;;4981649;28;20074;-62
2021/04/07 13:26:34;;;;;;;14.60;9.02;;;;;;;;;;4981910;28;20019;-62
2021/04/07 13:29:00;;;;;;;17.67;9.20;;;;;;;;;;4983093;28;20011;-61
2021/04/07 13:31:27;;;;;;;17.58;11.30;;;;;;;;;;4981560;28;20026;-62
2021/04/07 13:33:59;;;;;;;16.90;9.07;;;;;;;;;;4981553;28;20049;-61
2021/04/07 13:36:37;;;;;;;17.08;9.45;;;;;;;;;;4982610;28;20219;-62
2021/04/07 13:39:27;;;;;;;18.00;9.00;;;;;;;;;;4983129;28;20015;-63
2021/04/07 13:44:34;;;;;;;16.20;9.50;;;;;;;;;;4983065;28;20391;-62
2021/04/07 13:47:00;;;;;;;17.38;10.07;;;;;;;;;;4983176;28;20082;-63
2021/04/07 13:49:27;;;;;;;19.45;10.38;;;;;;;;;;4982907;28;20015;-63
2021/04/07 13:51:53;;;;;;;22.35;10.45;;;;;;;;;;4981514;28;20085;-62
2021/04/07 13:54:19;;;;;;;20.33;9.93;;;;;;;;;;4981610;28;20023;-62
2021/04/07 13:59:24;;;;;;;17.83;10.75;;;;;;;;;;4982823;28;20057;-63
2021/04/07 14:01:52;;;;;;;16.63;9.00;;;;;;;;;;4982825;28;20258;-62
2021/04/07 14:04:18;;;;;;;19.43;10.33;;;;;;;;;;4982500;28;20089;-64
2021/04/07 14:06:44;;;;;;;17.60;10.90;;;;;;;;;;4982346;28;20269;-63
2021/04/07 14:09:10;;;;;;;20.80;9.25;;;;;;;;;;4982794;28;20051;-63
2021/04/07 14:11:36;;;;;;;22.88;9.05;;;;;;;;;;4981262;28;20022;-64
2021/04/07 14:14:03;;;;;;;20.75;9.27;;;;;;;;;;4982266;28;20022;-63
2021/04/07 14:16:29;;;;;;;18.35;10.15;;;;;;;;;;4982640;28;20046;-63
2021/04/07 14:18:55;;;;;;;16.50;10.25;;;;;;;;;;4982129;28;20015;-63
2021/04/07 14:21:21;;;;;;;23.40;10.27;;;;;;;;;;4982256;28;20225;-64
2021/04/07 14:23:47;;;;;;;15.32;7.38;;;;;;;;;;4981144;28;20057;-65
2021/04/07 14:26:14;;;;;;;18.40;9.10;;;;;;;;;;4982264;28;20093;-64
2021/04/07 14:28:40;;;;;;;18.42;6.95;;;;;;;;;;4981291;28;20014;-63
2021/04/07 14:31:07;;;;;;;17.90;7.80;;;;;;;;;;4982250;28;20082;-62
2021/04/07 14:33:33;;;;;;;16.33;7.55;;;;;;;;;;4982549;28;20279;-64
2021/04/07 14:36:00;;;;;;;16.75;7.82;;;;;;;;;;4981768;28;20026;-64
2021/04/07 14:38:26;;;;;;;20.30;9.02;;;;;;;;;;4981280;28;20375;-65
2021/04/07 14:40:52;;;;;;;19.10;9.25;;;;;;;;;;4982373;28;20030;-64
2021/04/07 14:43:19;;;;;;;18.40;8.65;;;;;;;;;;4982490;28;20050;-63
2021/04/07 14:45:46;;;;;;;21.52;11.27;;;;;;;;;;4982142;28;20229;-64
2021/04/07 14:48:15;;;;;;;17.45;8.25;;;;;;;;;;4986297;28;20022;-64